TimeEST,TemperatureF,Dew PointF,Humidity,Sea Level PressureIn,VisibilityMPH,Wind Direction,Wind SpeedMPH,Gust SpeedMPH,PrecipitationIn,Events,Conditions,WindDirDegrees,DateUTC
12:15 AM,35.6,30.2,81,29.83,5.0,SSW,11.5,-,N/A,,Overcast,200,2013-01-09 05:15:00
12:55 AM,35.6,30.2,81,29.80,6.0,SSW,13.8,23.0,N/A,,Partly Cloudy,200,2013-01-09 05:55:00
1:15 AM,35.6,30.2,81,29.79,7.0,SSW,15.0,23.0,N/A,,Clear,210,2013-01-09 06:15:00
1:35 AM,35.6,30.2,81,29.78,7.0,SSW,12.7,19.6,N/A,,Partly Cloudy,200,2013-01-09 06:35:00
1:55 AM,35.6,28.4,75,29.78,6.0,SSW,9.2,-,N/A,,Mostly Cloudy,210,2013-01-09 06:55:00
2:15 AM,35.6,28.4,75,29.78,6.0,SSW,8.1,-,N/A,,Overcast,200,2013-01-09 07:15:00
2:35 AM,35.6,28.4,75,29.77,6.0,SSW,8.1,-,N/A,,Overcast,200,2013-01-09 07:35:00
2:55 AM,35.6,28.4,75,29.77,7.0,SSW,9.2,-,N/A,,Overcast,200,2013-01-09 07:55:00
3:15 AM,35.6,30.2,81,29.77,8.0,SSW,9.2,-,N/A,,Overcast,200,2013-01-09 08:15:00
3:35 AM,35.6,30.2,81,29.77,8.0,SSW,6.9,-,N/A,,Overcast,210,2013-01-09 08:35:00
3:55 AM,37.4,28.4,70,29.76,10.0,SW,9.2,-,N/A,,Overcast,220,2013-01-09 08:55:00
4:15 AM,37.4,28.4,70,29.76,10.0,SW,10.4,-,N/A,,Overcast,220,2013-01-09 09:15:00
4:35 AM,37.4,28.4,70,29.75,10.0,WSW,12.7,16.1,N/A,,Overcast,240,2013-01-09 09:35:00
4:55 AM,37.4,28.4,70,29.75,10.0,WSW,12.7,-,N/A,,Overcast,250,2013-01-09 09:55:00
5:15 AM,37.4,28.4,70,29.75,10.0,WSW,11.5,-,N/A,,Overcast,250,2013-01-09 10:15:00
5:35 AM,37.4,28.4,70,29.76,10.0,West,12.7,18.4,N/A,,Overcast,260,2013-01-09 10:35:00
5:55 AM,37.4,28.4,70,29.77,10.0,West,11.5,20.7,N/A,,Overcast,260,2013-01-09 10:55:00
6:15 AM,37.4,28.4,70,29.76,10.0,West,18.4,25.3,N/A,,Overcast,260,2013-01-09 11:15:00
6:35 AM,37.4,26.6,65,29.77,10.0,West,16.1,25.3,N/A,,Mostly Cloudy,270,2013-01-09 11:35:00
6:55 AM,35.6,26.6,70,29.76,10.0,West,19.6,24.2,N/A,,Clear,270,2013-01-09 11:55:00
7:15 AM,35.6,26.6,70,29.79,10.0,WSW,11.5,-,N/A,,Clear,250,2013-01-09 12:15:00
7:35 AM,35.6,26.6,70,29.81,10.0,WSW,12.7,18.4,N/A,,Scattered Clouds,250,2013-01-09 12:35:00
7:55 AM,35.6,26.6,70,29.81,10.0,WSW,18.4,26.5,N/A,,Scattered Clouds,250,2013-01-09 12:55:00
8:15 AM,35.6,24.8,65,29.82,10.0,WSW,12.7,-,N/A,,Clear,250,2013-01-09 13:15:00
8:35 AM,33.8,24.8,70,29.82,10.0,WSW,10.4,-,N/A,,Clear,240,2013-01-09 13:35:00
8:55 AM,33.8,24.8,70,29.83,10.0,SW,11.5,-,N/A,,Clear,220,2013-01-09 13:55:00
9:15 AM,33.8,24.8,70,29.83,10.0,SW,11.5,-,N/A,,Clear,220,2013-01-09 14:15:00
9:35 AM,33.8,24.8,70,29.83,10.0,WSW,12.7,20.7,N/A,,Clear,240,2013-01-09 14:35:00
9:55 AM,33.8,24.8,70,29.83,10.0,WSW,18.4,25.3,N/A,,Mostly Cloudy,240,2013-01-09 14:55:00
10:15 AM,35.6,24.8,65,29.83,10.0,West,21.9,26.5,N/A,,Overcast,270,2013-01-09 15:15:00
10:35 AM,35.6,24.8,65,29.85,10.0,West,13.8,24.2,N/A,,Overcast,260,2013-01-09 15:35:00
10:55 AM,35.6,24.8,65,29.85,10.0,West,15.0,23.0,N/A,,Overcast,270,2013-01-09 15:55:00
11:15 AM,35.6,24.8,65,29.87,10.0,West,13.8,23.0,N/A,,Overcast,260,2013-01-09 16:15:00
11:35 AM,35.6,24.8,65,29.87,10.0,West,16.1,23.0,N/A,,Overcast,270,2013-01-09 16:35:00
11:55 AM,35.6,24.8,65,29.88,10.0,West,15.0,23.0,N/A,,Overcast,270,2013-01-09 16:55:00
12:15 PM,35.6,24.8,65,29.89,10.0,West,13.8,18.4,N/A,,Overcast,270,2013-01-09 17:15:00
12:55 PM,37.4,21.2,52,29.87,10.0,WNW,27.6,38.0,N/A,,Overcast,290,2013-01-09 17:55:00
1:15 PM,37.4,21.2,52,29.91,10.0,WNW,19.6,27.6,N/A,,Overcast,290,2013-01-09 18:15:00
1:35 PM,37.4,21.2,52,29.92,10.0,WNW,20.7,32.2,N/A,,Overcast,300,2013-01-09 18:35:00
1:55 PM,37.4,21.2,52,29.93,10.0,WNW,15.0,33.4,N/A,,Overcast,300,2013-01-09 18:55:00
2:15 PM,37.4,19.4,48,29.95,10.0,WNW,21.9,26.5,N/A,,Mostly Cloudy,300,2013-01-09 19:15:00
2:35 PM,37.4,21.2,52,29.97,10.0,WNW,23.0,32.2,N/A,,Mostly Cloudy,290,2013-01-09 19:35:00
2:55 PM,37.4,21.2,52,29.98,10.0,WNW,26.5,32.2,N/A,,Overcast,290,2013-01-09 19:55:00
3:15 PM,37.4,21.2,52,30.02,10.0,WNW,15.0,25.3,N/A,,Mostly Cloudy,300,2013-01-09 20:15:00
3:35 PM,37.4,21.2,52,30.03,10.0,WNW,24.2,28.8,N/A,,Mostly Cloudy,290,2013-01-09 20:35:00
3:55 PM,37.4,21.2,52,30.08,10.0,WNW,16.1,27.6,N/A,,Mostly Cloudy,300,2013-01-09 20:55:00
4:15 PM,37.4,21.2,52,30.10,10.0,WNW,20.7,25.3,N/A,,Mostly Cloudy,290,2013-01-09 21:15:00
4:35 PM,37.4,19.4,48,30.12,10.0,WNW,16.1,28.8,N/A,,Overcast,290,2013-01-09 21:35:00
4:55 PM,37.4,19.4,48,30.13,10.0,WNW,16.1,26.5,N/A,,Scattered Clouds,300,2013-01-09 21:55:00
5:15 PM,35.6,19.4,52,30.15,10.0,WNW,12.7,18.4,N/A,,Clear,290,2013-01-09 22:15:00
5:35 PM,35.6,19.4,52,30.17,10.0,WNW,16.1,21.9,N/A,,Clear,290,2013-01-09 22:35:00
6:15 PM,33.8,19.4,56,30.21,10.0,WNW,10.4,-,N/A,,Clear,290,2013-01-09 23:15:00
6:35 PM,33.8,19.4,56,30.23,10.0,WNW,8.1,-,N/A,,Clear,290,2013-01-09 23:35:00
6:55 PM,33.8,19.4,56,30.25,10.0,WNW,4.6,-,N/A,,Clear,290,2013-01-09 23:55:00
7:15 PM,30.2,19.4,64,30.26,10.0,Calm,Calm,-,N/A,,Clear,0,2013-01-10 00:15:00
7:35 PM,28.4,17.6,64,30.28,10.0,Calm,Calm,-,N/A,,Clear,0,2013-01-10 00:35:00
7:55 PM,28.4,19.4,69,30.30,10.0,SW,3.5,-,N/A,,Clear,230,2013-01-10 00:55:00
8:15 PM,28.4,19.4,69,30.32,10.0,Calm,Calm,-,N/A,,Clear,0,2013-01-10 01:15:00
8:35 PM,28.4,19.4,69,30.32,10.0,Calm,Calm,-,N/A,,Clear,0,2013-01-10 01:35:00
8:55 PM,26.6,17.6,69,30.33,10.0,WSW,4.6,-,N/A,,Clear,240,2013-01-10 01:55:00
9:35 PM,28.4,19.4,69,30.35,10.0,WSW,3.5,-,N/A,,Clear,250,2013-01-10 02:35:00
9:55 PM,26.6,19.4,74,30.38,10.0,WSW,5.8,-,N/A,,Clear,240,2013-01-10 02:55:00
10:15 PM,26.6,17.6,69,30.39,10.0,WSW,5.8,-,N/A,,Clear,240,2013-01-10 03:15:00
10:35 PM,26.6,19.4,74,30.39,10.0,West,5.8,-,N/A,,Clear,260,2013-01-10 03:35:00
10:55 PM,26.6,17.6,69,30.39,10.0,WSW,5.8,-,N/A,,Clear,250,2013-01-10 03:55:00
11:15 PM,26.6,17.6,69,30.40,10.0,NW,4.6,-,N/A,,Clear,310,2013-01-10 04:15:00
11:35 PM,26.6,17.6,69,30.41,10.0,WNW,5.8,-,N/A,,Clear,290,2013-01-10 04:35:00
11:55 PM,26.6,17.6,69,30.42,10.0,West,5.8,-,N/A,,Clear,270,2013-01-10 04:55:00